createdAt,value
2022-09-17T00:00:07.449Z,2.00
2022-09-17T00:01:07.426Z,2.40
2022-09-17T00:02:07.520Z,2.20
2022-09-17T00:03:07.456Z,2.10
2022-09-17T00:04:07.396Z,2.10
2022-09-17T00:05:07.416Z,2.30
2022-09-17T00:06:07.375Z,2.10
2022-09-17T00:07:07.378Z,2.40
2022-09-17T00:08:07.348Z,2.30
2022-09-17T00:09:07.344Z,2.30
2022-09-17T00:10:07.326Z,2.40
2022-09-17T00:11:07.357Z,2.50
2022-09-17T00:12:07.320Z,2.40
2022-09-17T00:13:07.289Z,2.30
2022-09-17T00:14:07.279Z,2.30
2022-09-17T00:15:07.276Z,2.10
2022-09-17T00:16:07.334Z,1.90
2022-09-17T00:17:07.298Z,1.90
2022-09-17T00:18:07.232Z,2.30
2022-09-17T00:19:07.216Z,2.20
2022-09-17T00:20:07.208Z,2.20
2022-09-17T00:21:07.198Z,2.00
2022-09-17T00:22:07.229Z,2.50
2022-09-17T00:23:07.174Z,2.30
2022-09-17T00:24:07.160Z,2.10
2022-09-17T00:25:07.148Z,2.10
2022-09-17T00:26:07.142Z,2.00
2022-09-17T00:27:07.143Z,1.60
2022-09-17T00:28:07.141Z,1.90
2022-09-17T00:29:07.102Z,2.20
2022-09-17T00:30:07.100Z,1.80
2022-09-17T00:31:07.115Z,1.80
2022-09-17T00:32:07.070Z,2.00
2022-09-17T00:33:07.100Z,2.30
2022-09-17T00:34:07.039Z,1.90
2022-09-17T00:35:07.040Z,2.20
2022-09-17T00:36:07.024Z,2.20
2022-09-17T00:37:07.000Z,2.20
2022-09-17T00:38:07.007Z,2.00
2022-09-17T00:39:07.013Z,1.80
2022-09-17T00:40:07.013Z,2.10
2022-09-17T00:41:06.971Z,1.60
2022-09-17T00:42:06.971Z,2.30
2022-09-17T00:43:06.941Z,2.40
2022-09-17T00:44:07.000Z,2.30
2022-09-17T00:45:06.937Z,2.40
2022-09-17T00:46:06.970Z,1.80
2022-09-17T00:47:06.896Z,2.00
2022-09-17T00:48:06.885Z,2.00
2022-09-17T00:49:06.864Z,1.90
2022-09-17T00:50:06.901Z,2.20
2022-09-17T00:51:06.842Z,2.30
2022-09-17T00:52:06.835Z,2.40
2022-09-17T00:53:06.823Z,2.00
2022-09-17T00:54:06.807Z,2.00
2022-09-17T00:55:06.793Z,2.00
2022-09-17T00:56:06.826Z,2.40
2022-09-17T00:57:06.777Z,2.10
2022-09-17T00:58:06.757Z,1.90
2022-09-17T00:59:06.762Z,2.30
2022-09-17T01:00:06.736Z,2.00
2022-09-17T01:01:06.827Z,2.10
2022-09-17T01:02:06.781Z,2.00
2022-09-17T01:03:06.724Z,2.50
2022-09-17T01:04:06.706Z,2.30
2022-09-17T01:05:06.682Z,2.10
2022-09-17T01:06:06.673Z,2.30
2022-09-17T01:07:06.685Z,2.10
2022-09-17T01:08:06.648Z,1.90
2022-09-17T01:09:06.656Z,2.10
2022-09-17T01:10:06.628Z,2.30
2022-09-17T01:11:06.614Z,2.00
2022-09-17T01:12:06.599Z,2.00
2022-09-17T01:13:06.748Z,2.30
2022-09-17T01:14:06.577Z,2.20
2022-09-17T01:15:06.576Z,1.70
2022-09-17T01:16:06.627Z,1.90
2022-09-17T01:17:06.556Z,2.20
2022-09-17T01:18:06.572Z,1.70
2022-09-17T01:19:06.521Z,1.80
2022-09-17T01:20:06.505Z,1.80
2022-09-17T01:21:06.509Z,2.20
2022-09-17T01:22:06.498Z,2.10
2022-09-17T01:23:06.486Z,1.80
2022-09-17T01:24:06.498Z,2.20
2022-09-17T01:25:06.450Z,2.20
2022-09-17T01:26:06.449Z,2.20
2022-09-17T01:27:06.465Z,2.00
2022-09-17T01:28:06.417Z,2.40
2022-09-17T01:29:06.422Z,2.30
2022-09-17T01:30:06.442Z,2.30
2022-09-17T01:31:06.427Z,2.20
2022-09-17T01:32:06.369Z,2.40
2022-09-17T01:33:06.367Z,2.50
2022-09-17T01:34:06.349Z,2.30
2022-09-17T01:35:06.348Z,2.30
2022-09-17T01:36:06.350Z,2.00
2022-09-17T01:37:06.322Z,2.20
2022-09-17T01:38:06.302Z,2.20
2022-09-17T01:39:06.290Z,2.00
2022-09-17T01:40:06.332Z,2.30
2022-09-17T01:41:06.300Z,2.10
2022-09-17T01:42:06.271Z,2.30
2022-09-17T01:43:06.253Z,2.30
2022-09-17T01:44:06.238Z,2.40
2022-09-17T01:45:06.242Z,2.10
2022-09-17T01:46:06.259Z,2.10
2022-09-17T01:47:06.244Z,2.10
2022-09-17T01:48:06.182Z,2.60
2022-09-17T01:49:06.171Z,2.30
2022-09-17T01:50:06.192Z,2.40
2022-09-17T01:51:06.168Z,2.50
2022-09-17T01:52:06.147Z,2.40
2022-09-17T01:53:06.160Z,2.10
2022-09-17T01:54:06.140Z,2.40
2022-09-17T01:55:06.113Z,2.50
2022-09-17T01:56:06.102Z,2.50
2022-09-17T01:57:06.095Z,2.60
2022-09-17T01:58:06.148Z,2.60
2022-09-17T01:59:06.066Z,2.70
2022-09-17T02:00:06.066Z,2.90
2022-09-17T02:01:06.073Z,2.90
2022-09-17T02:02:06.057Z,2.50
2022-09-17T02:03:06.016Z,3.00
2022-09-17T02:04:06.184Z,2.70
2022-09-17T02:05:06.005Z,3.00
2022-09-17T02:06:05.989Z,2.70
2022-09-17T02:07:05.964Z,2.40
2022-09-17T02:08:05.974Z,2.60
2022-09-17T02:09:05.945Z,2.80
2022-09-17T02:10:05.954Z,3.50
2022-09-17T02:11:05.916Z,3.40
2022-09-17T02:12:05.914Z,3.10
2022-09-17T02:13:05.895Z,2.90
2022-09-17T02:14:05.896Z,3.10
2022-09-17T02:15:05.893Z,2.80
2022-09-17T02:16:06.104Z,3.10
2022-09-17T02:17:05.887Z,2.90
2022-09-17T02:18:05.845Z,3.20
2022-09-17T02:19:05.827Z,3.00
2022-09-17T02:20:05.816Z,3.20
2022-09-17T02:21:05.810Z,2.70
2022-09-17T02:22:05.816Z,2.60
2022-09-17T02:23:05.788Z,2.40
2022-09-17T02:24:06.716Z,2.70
2022-09-17T02:25:05.757Z,3.10
2022-09-17T02:26:05.756Z,2.90
2022-09-17T02:27:05.776Z,2.40
2022-09-17T02:28:05.727Z,2.30
2022-09-17T02:29:05.725Z,2.60
2022-09-17T02:30:05.705Z,2.10
2022-09-17T02:31:05.740Z,2.50
2022-09-17T02:32:05.704Z,2.40
2022-09-17T02:33:05.697Z,2.30
2022-09-17T02:34:05.660Z,2.90
2022-09-17T02:35:05.647Z,2.60
2022-09-17T02:36:05.641Z,2.40
2022-09-17T02:37:05.628Z,2.80
2022-09-17T02:38:05.638Z,2.60
2022-09-17T02:39:05.633Z,2.50
2022-09-17T02:40:05.629Z,3.20
2022-09-17T02:41:05.573Z,2.20
2022-09-17T02:42:05.570Z,2.80
2022-09-17T02:43:05.566Z,2.80
2022-09-17T02:44:05.597Z,2.60
2022-09-17T02:45:05.529Z,2.60
2022-09-17T02:46:05.520Z,2.80
2022-09-17T02:47:05.513Z,2.50
2022-09-17T02:48:05.501Z,2.70
2022-09-17T02:49:05.499Z,2.70
2022-09-17T02:50:05.501Z,2.40
2022-09-17T02:51:05.460Z,2.30
2022-09-17T02:52:05.456Z,2.70
2022-09-17T02:53:05.431Z,1.90
2022-09-17T02:54:05.442Z,2.60
2022-09-17T02:55:05.420Z,2.10
2022-09-17T02:56:05.447Z,2.70
2022-09-17T02:57:05.402Z,2.30
2022-09-17T02:58:05.392Z,2.30
2022-09-17T02:59:05.380Z,2.40
2022-09-17T03:00:05.371Z,2.60
2022-09-17T03:01:05.409Z,2.50
2022-09-17T03:02:05.428Z,2.60
2022-09-17T03:03:05.324Z,2.90
2022-09-17T03:04:05.321Z,2.20
2022-09-17T03:05:05.323Z,2.80
2022-09-17T03:06:05.293Z,2.60
2022-09-17T03:07:05.317Z,2.70
2022-09-17T03:08:05.272Z,2.80
2022-09-17T03:09:05.319Z,2.70
2022-09-17T03:10:05.264Z,2.60
2022-09-17T03:11:05.235Z,2.20
2022-09-17T03:12:05.259Z,2.90
2022-09-17T03:13:05.256Z,2.50
2022-09-17T03:14:05.227Z,2.60
2022-09-17T03:15:05.192Z,2.60
2022-09-17T03:16:05.226Z,2.60
2022-09-17T03:17:05.164Z,2.70
2022-09-17T03:18:05.155Z,2.60
2022-09-17T03:19:05.174Z,2.10
2022-09-17T03:20:05.139Z,2.60
2022-09-17T03:21:05.176Z,2.70
2022-09-17T03:22:05.118Z,3.00
2022-09-17T03:23:05.095Z,2.70
2022-09-17T03:24:05.084Z,2.80
2022-09-17T03:25:05.106Z,3.30
2022-09-17T03:26:05.077Z,3.10
2022-09-17T03:27:05.054Z,3.20
2022-09-17T03:28:05.047Z,2.70
2022-09-17T03:29:05.034Z,2.80
2022-09-17T03:30:05.026Z,2.70
2022-09-17T03:31:05.074Z,3.20
2022-09-17T03:32:04.996Z,3.40
2022-09-17T03:33:04.995Z,3.30
2022-09-17T03:34:04.977Z,2.90
2022-09-17T03:35:04.958Z,3.20
2022-09-17T03:36:04.991Z,3.20
2022-09-17T03:37:04.940Z,3.60
2022-09-17T03:38:04.945Z,3.50
2022-09-17T03:39:04.919Z,3.20
2022-09-17T03:40:04.962Z,3.20
2022-09-17T03:41:04.899Z,3.50
2022-09-17T03:42:04.942Z,3.60
2022-09-17T03:43:04.900Z,3.40
2022-09-17T03:44:05.051Z,3.50
2022-09-17T03:45:04.848Z,3.30
2022-09-17T03:46:04.903Z,3.50
2022-09-17T03:47:04.830Z,3.80
2022-09-17T03:48:04.844Z,3.50
2022-09-17T03:49:04.813Z,3.40
2022-09-17T03:50:04.806Z,3.60
2022-09-17T03:51:04.780Z,3.70
2022-09-17T03:52:04.787Z,3.50
2022-09-17T03:53:04.752Z,3.60
2022-09-17T03:54:04.790Z,3.30
2022-09-17T03:55:04.744Z,3.80
2022-09-17T03:56:04.729Z,3.40
2022-09-17T03:57:04.715Z,3.50
2022-09-17T03:58:04.705Z,3.50
2022-09-17T03:59:04.749Z,3.40
2022-09-17T04:00:04.704Z,3.90
2022-09-17T04:01:04.680Z,3.40
2022-09-17T04:02:04.777Z,3.20
2022-09-17T04:03:04.655Z,3.50
2022-09-17T04:04:04.677Z,3.50
2022-09-17T04:05:04.622Z,3.50
2022-09-17T04:06:04.631Z,3.90
2022-09-17T04:07:04.601Z,4.00
2022-09-17T04:08:04.593Z,3.10
2022-09-17T04:09:04.591Z,3.70
2022-09-17T04:10:04.563Z,3.70
2022-09-17T04:11:04.560Z,4.20
2022-09-17T04:12:04.581Z,3.60
2022-09-17T04:13:04.560Z,3.30
2022-09-17T04:14:04.551Z,3.70
2022-09-17T04:15:04.503Z,3.60
2022-09-17T04:16:04.553Z,3.50
2022-09-17T04:17:04.491Z,3.40
2022-09-17T04:18:04.493Z,3.30
2022-09-17T04:19:04.457Z,2.90
2022-09-17T04:20:04.456Z,2.80
2022-09-17T04:21:04.442Z,2.90
2022-09-17T04:22:04.481Z,3.00
2022-09-17T04:23:04.567Z,2.90
2022-09-17T04:24:04.405Z,2.80
2022-09-17T04:25:04.404Z,3.20
2022-09-17T04:26:04.373Z,2.70
2022-09-17T04:27:04.375Z,3.40
2022-09-17T04:28:04.355Z,3.10
2022-09-17T04:29:04.376Z,3.10
2022-09-17T04:30:04.333Z,2.90
2022-09-17T04:31:04.357Z,2.50
2022-09-17T04:32:04.330Z,3.00
2022-09-17T04:33:04.298Z,2.70
2022-09-17T04:34:04.335Z,2.60
2022-09-17T04:35:04.276Z,3.10
2022-09-17T04:36:04.255Z,2.60
2022-09-17T04:37:04.376Z,2.70
2022-09-17T04:38:04.310Z,2.80
2022-09-17T04:39:04.936Z,2.80
2022-09-17T04:40:07.684Z,3.00
2022-09-17T04:41:04.210Z,2.40
2022-09-17T04:42:04.188Z,2.60
2022-09-17T04:43:04.246Z,2.50
2022-09-17T04:44:04.190Z,2.80
2022-09-17T04:45:04.200Z,2.30
2022-09-17T04:46:04.285Z,2.40
2022-09-17T04:47:04.136Z,2.90
2022-09-17T04:48:04.212Z,2.50
2022-09-17T04:49:04.116Z,2.70
2022-09-17T04:50:04.089Z,2.80
2022-09-17T04:51:04.149Z,2.80
2022-09-17T04:52:04.077Z,2.80
2022-09-17T04:53:04.057Z,2.50
2022-09-17T04:54:04.051Z,2.80
2022-09-17T04:55:04.039Z,2.50
2022-09-17T04:56:04.027Z,2.30
2022-09-17T04:57:04.081Z,2.50
2022-09-17T04:58:04.013Z,2.60
2022-09-17T04:59:03.991Z,2.80
2022-09-17T05:00:03.990Z,3.00
2022-09-17T05:01:04.007Z,2.20
2022-09-17T05:02:04.015Z,2.60
2022-09-17T05:03:03.977Z,2.40
2022-09-17T05:04:03.939Z,2.70
2022-09-17T05:05:03.931Z,2.90
2022-09-17T05:06:03.959Z,2.50
2022-09-17T05:07:03.910Z,3.00
2022-09-17T05:08:03.890Z,3.20
2022-09-17T05:09:03.905Z,2.30
2022-09-17T05:10:03.863Z,2.50
2022-09-17T05:11:03.860Z,2.80
2022-09-17T05:12:03.842Z,2.70
2022-09-17T05:13:03.850Z,2.40
2022-09-17T05:14:03.822Z,2.40
2022-09-17T05:15:04.251Z,2.70
2022-09-17T05:16:03.913Z,2.60
2022-09-17T05:17:03.790Z,2.40
2022-09-17T05:18:03.781Z,2.60
2022-09-17T05:19:03.759Z,2.70
2022-09-17T05:20:03.793Z,2.40
2022-09-17T05:21:03.742Z,2.60
2022-09-17T05:22:03.734Z,2.30
2022-09-17T05:23:03.782Z,2.20
2022-09-17T05:24:03.733Z,2.10
2022-09-17T05:25:03.694Z,2.30
2022-09-17T05:26:03.713Z,2.60
2022-09-17T05:27:03.687Z,2.50
2022-09-17T05:28:03.660Z,2.30
2022-09-17T05:29:03.653Z,2.60
2022-09-17T05:30:03.667Z,2.10
2022-09-17T05:31:03.633Z,2.20
2022-09-17T05:32:03.663Z,2.40
2022-09-17T05:33:03.604Z,2.40
2022-09-17T05:34:03.695Z,2.80
2022-09-17T05:35:05.602Z,2.20
2022-09-17T05:36:03.603Z,2.40
2022-09-17T05:37:03.595Z,2.30
2022-09-17T05:38:03.576Z,2.20
2022-09-17T05:39:03.536Z,2.10
2022-09-17T05:40:03.600Z,1.90
2022-09-17T05:41:03.505Z,2.20
2022-09-17T05:42:03.513Z,2.20
2022-09-17T05:43:03.506Z,2.60
2022-09-17T05:44:03.594Z,1.80
2022-09-17T05:45:03.460Z,2.10
2022-09-17T05:46:03.471Z,2.10
2022-09-17T05:47:03.445Z,1.80
2022-09-17T05:48:03.441Z,2.20
2022-09-17T05:49:03.457Z,2.00
2022-09-17T05:50:03.473Z,2.00
2022-09-17T05:51:03.395Z,2.40
2022-09-17T05:52:03.407Z,2.10
2022-09-17T05:53:03.447Z,2.10
2022-09-17T05:54:03.430Z,2.10
2022-09-17T05:55:03.368Z,2.50
2022-09-17T05:56:03.339Z,1.90
2022-09-17T05:57:03.328Z,2.30
2022-09-17T05:58:03.308Z,1.90
2022-09-17T05:59:03.311Z,2.40
2022-09-17T06:00:03.287Z,2.20
2022-09-17T06:01:03.329Z,2.20
2022-09-17T06:02:03.471Z,2.10
2022-09-17T06:03:03.362Z,1.70
2022-09-17T06:04:03.239Z,2.50
2022-09-17T06:05:03.229Z,2.00
2022-09-17T06:06:03.248Z,2.10
2022-09-17T06:07:03.229Z,2.20
2022-09-17T06:08:03.189Z,1.90
2022-09-17T06:09:03.189Z,2.10
2022-09-17T06:10:03.218Z,2.40
2022-09-17T06:11:03.194Z,2.00
2022-09-17T06:12:03.188Z,3.00
2022-09-17T06:13:03.201Z,2.20
2022-09-17T06:14:03.128Z,2.30
2022-09-17T06:15:03.135Z,2.40
2022-09-17T06:16:03.150Z,2.50
2022-09-17T06:17:03.100Z,2.60
2022-09-17T06:18:03.186Z,2.60
2022-09-17T06:19:03.070Z,2.10
2022-09-17T06:20:03.051Z,2.40
2022-09-17T06:21:03.053Z,2.40
2022-09-17T06:22:03.121Z,2.40
2022-09-17T06:23:03.072Z,2.60
2022-09-17T06:24:03.031Z,2.40
2022-09-17T06:25:03.000Z,2.60
2022-09-17T06:26:02.995Z,1.90
2022-09-17T06:27:02.981Z,2.50
2022-09-17T06:28:02.963Z,2.70
2022-09-17T06:29:02.980Z,2.20
2022-09-17T06:30:03.030Z,2.30
2022-09-17T06:31:02.995Z,2.60
2022-09-17T06:32:02.922Z,2.70
2022-09-17T06:33:02.909Z,2.60
2022-09-17T06:34:02.897Z,2.60
2022-09-17T06:35:02.904Z,2.80
2022-09-17T06:36:02.876Z,2.90
2022-09-17T06:37:02.862Z,2.60
2022-09-17T06:38:02.887Z,2.90
2022-09-17T06:39:02.865Z,2.80
2022-09-17T06:40:02.941Z,2.80
2022-09-17T06:41:02.813Z,2.60
2022-09-17T06:42:02.804Z,2.70
2022-09-17T06:43:02.805Z,3.10
2022-09-17T06:44:02.782Z,2.80
2022-09-17T06:45:07.686Z,2.50
2022-09-17T06:46:03.804Z,2.60
2022-09-17T06:47:02.766Z,2.70
2022-09-17T06:48:02.766Z,3.10
2022-09-17T06:49:02.748Z,3.00
2022-09-17T06:50:02.735Z,2.50
2022-09-17T06:51:02.746Z,2.50
2022-09-17T06:52:02.685Z,3.00
2022-09-17T06:53:02.678Z,2.50
2022-09-17T06:54:02.669Z,2.80
2022-09-17T06:55:02.705Z,2.80
2022-09-17T06:56:06.283Z,2.90
2022-09-17T06:57:02.653Z,2.80
2022-09-17T06:58:02.655Z,2.30
2022-09-17T06:59:02.616Z,2.80
2022-09-17T07:00:02.608Z,2.50
2022-09-17T07:01:02.667Z,2.60
2022-09-17T07:02:02.681Z,2.40
2022-09-17T07:03:02.588Z,2.50
2022-09-17T07:04:02.558Z,2.40
2022-09-17T07:05:02.550Z,2.40
2022-09-17T07:06:02.542Z,2.60
2022-09-17T07:07:02.525Z,3.10
2022-09-17T07:08:02.632Z,3.00
2022-09-17T07:09:02.504Z,2.80
2022-09-17T07:10:02.495Z,3.10
2022-09-17T07:11:02.512Z,2.70
2022-09-17T07:12:02.467Z,2.80
2022-09-17T07:13:02.449Z,2.50
2022-09-17T07:14:02.469Z,2.90
2022-09-17T07:15:02.433Z,2.40
2022-09-17T07:16:02.487Z,3.00
2022-09-17T07:17:02.444Z,3.00
2022-09-17T07:18:02.389Z,2.80
2022-09-17T07:19:02.424Z,2.10
2022-09-17T07:20:02.480Z,2.70
2022-09-17T07:21:02.510Z,2.80
2022-09-17T07:22:02.359Z,2.70
2022-09-17T07:23:02.330Z,2.40
2022-09-17T07:24:02.319Z,2.80
2022-09-17T07:25:02.354Z,2.50
2022-09-17T07:26:02.300Z,3.10
2022-09-17T07:27:02.302Z,2.60
2022-09-17T07:28:02.274Z,2.20
2022-09-17T07:29:02.272Z,2.50
2022-09-17T07:30:02.275Z,2.80
2022-09-17T07:31:02.309Z,2.20
2022-09-17T07:32:02.260Z,2.10
2022-09-17T07:33:02.236Z,2.40
2022-09-17T07:34:02.220Z,2.30
2022-09-17T07:35:02.203Z,2.50
2022-09-17T07:36:02.213Z,2.40
2022-09-17T07:37:02.172Z,2.80
2022-09-17T07:38:02.157Z,2.30
2022-09-17T07:39:02.194Z,2.90
2022-09-17T07:40:02.393Z,2.70
2022-09-17T07:41:02.133Z,2.40
2022-09-17T07:42:02.141Z,2.10
2022-09-17T07:43:02.109Z,2.20
2022-09-17T07:44:02.088Z,2.60
2022-09-17T07:45:02.451Z,2.70
2022-09-17T07:46:02.075Z,3.10
2022-09-17T07:47:02.142Z,2.30
2022-09-17T07:48:02.096Z,2.70
2022-09-17T07:49:02.036Z,2.30
2022-09-17T07:50:02.015Z,2.40
2022-09-17T07:51:02.016Z,2.70
2022-09-17T07:52:01.999Z,2.40
2022-09-17T07:53:01.995Z,2.40
2022-09-17T07:54:01.999Z,2.40
2022-09-17T07:55:01.969Z,3.10
2022-09-17T07:56:01.956Z,2.40
2022-09-17T07:57:01.938Z,2.30
2022-09-17T07:58:01.928Z,2.50
2022-09-17T07:59:01.918Z,2.60
2022-09-17T08:00:02.007Z,2.30
2022-09-17T08:01:01.887Z,2.50
2022-09-17T08:02:02.000Z,2.30
2022-09-17T08:03:01.962Z,3.00
2022-09-17T08:04:01.860Z,2.90
2022-09-17T08:05:01.888Z,2.10
2022-09-17T08:06:01.839Z,2.70
2022-09-17T08:07:01.832Z,2.10
2022-09-17T08:08:01.846Z,2.60
2022-09-17T08:09:01.798Z,2.40
2022-09-17T08:10:01.816Z,2.40
2022-09-17T08:11:01.808Z,2.10
2022-09-17T08:12:01.775Z,2.80
2022-09-17T08:13:01.750Z,2.00
2022-09-17T08:14:01.751Z,2.50
2022-09-17T08:15:01.731Z,2.00
2022-09-17T08:16:01.833Z,2.60
2022-09-17T08:17:01.739Z,2.80
2022-09-17T08:18:01.712Z,2.40
2022-09-17T08:19:01.690Z,2.10
2022-09-17T08:20:01.682Z,2.30
2022-09-17T08:21:01.891Z,2.20
2022-09-17T08:22:01.685Z,2.00
2022-09-17T08:23:01.661Z,2.40
2022-09-17T08:24:01.642Z,2.60
2022-09-17T08:25:01.622Z,2.30
2022-09-17T08:26:01.624Z,2.40
2022-09-17T08:27:01.600Z,2.30
2022-09-17T08:28:01.593Z,2.30
2022-09-17T08:29:01.655Z,1.80
2022-09-17T08:30:01.577Z,2.00
2022-09-17T08:31:01.608Z,2.30
2022-09-17T08:32:01.551Z,2.10
2022-09-17T08:33:01.572Z,2.40
2022-09-17T08:34:01.563Z,1.90
2022-09-17T08:35:01.503Z,2.20
2022-09-17T08:36:01.516Z,2.10
2022-09-17T08:37:01.518Z,2.10
2022-09-17T08:38:01.553Z,2.10
2022-09-17T08:39:01.504Z,2.00
2022-09-17T08:40:01.491Z,1.90
2022-09-17T08:41:01.448Z,2.10
2022-09-17T08:42:01.449Z,1.50
2022-09-17T08:43:01.417Z,1.50
2022-09-17T08:44:01.407Z,2.00
2022-09-17T08:45:01.431Z,1.70
2022-09-17T08:46:01.398Z,1.80
2022-09-17T08:47:01.385Z,1.80
2022-09-17T08:48:01.365Z,1.70
2022-09-17T08:49:01.353Z,1.60
2022-09-17T08:50:01.350Z,1.90
2022-09-17T08:51:05.438Z,1.80
2022-09-17T08:52:02.371Z,1.80
2022-09-17T08:53:01.307Z,1.50
2022-09-17T08:54:01.299Z,2.10
2022-09-17T08:55:01.289Z,1.80
2022-09-17T08:56:01.305Z,1.60
2022-09-17T08:57:01.276Z,1.50
2022-09-17T08:58:01.248Z,1.40
2022-09-17T08:59:01.241Z,1.60
2022-09-17T09:00:01.230Z,1.70
2022-09-17T09:01:01.228Z,1.50
2022-09-17T09:02:01.315Z,2.00
2022-09-17T09:03:01.253Z,1.70
2022-09-17T09:04:01.188Z,1.70
2022-09-17T09:05:01.201Z,1.30
2022-09-17T09:06:01.163Z,1.60
2022-09-17T09:07:01.190Z,1.60
2022-09-17T09:08:01.141Z,1.50
2022-09-17T09:09:01.133Z,1.30
2022-09-17T09:10:01.130Z,1.20
2022-09-17T09:11:01.110Z,1.40
2022-09-17T09:12:01.236Z,1.30
2022-09-17T09:13:01.112Z,1.70
2022-09-17T09:14:01.084Z,1.40
2022-09-17T09:15:01.066Z,1.30
2022-09-17T09:16:01.114Z,1.50
2022-09-17T09:17:01.041Z,1.20
2022-09-17T09:18:01.032Z,1.40
2022-09-17T09:19:01.422Z,1.40
2022-09-17T09:20:00.992Z,1.30
2022-09-17T09:21:00.986Z,1.50
2022-09-17T09:22:01.006Z,1.30
2022-09-17T09:23:00.962Z,1.20
2022-09-17T09:24:00.973Z,1.30
2022-09-17T09:25:00.945Z,1.10
2022-09-17T09:26:00.968Z,1.30
2022-09-17T09:27:00.944Z,1.50
2022-09-17T09:28:00.909Z,1.90
2022-09-17T09:29:00.915Z,1.20
2022-09-17T09:30:00.909Z,1.10
2022-09-17T09:31:00.968Z,1.50
2022-09-17T09:32:00.887Z,1.50
2022-09-17T09:33:00.875Z,1.60
2022-09-17T09:34:00.843Z,1.90
2022-09-17T09:35:00.849Z,1.60
2022-09-17T09:36:00.817Z,1.50
2022-09-17T09:37:00.806Z,1.30
2022-09-17T09:38:00.801Z,1.30
2022-09-17T09:39:00.797Z,1.20
2022-09-17T09:40:00.841Z,1.40
2022-09-17T09:41:00.787Z,1.10
2022-09-17T09:42:00.746Z,1.30
2022-09-17T09:43:00.736Z,1.60
2022-09-17T09:44:04.776Z,1.40
2022-09-17T09:45:05.011Z,1.40
2022-09-17T09:46:00.718Z,1.30
2022-09-17T09:47:00.762Z,1.60
2022-09-17T09:48:00.699Z,1.70
2022-09-17T09:49:00.658Z,1.60
2022-09-17T09:50:00.649Z,1.00
2022-09-17T09:51:06.322Z,1.30
2022-09-17T09:52:01.638Z,1.30
2022-09-17T09:53:00.609Z,1.20
2022-09-17T09:54:00.589Z,1.60
2022-09-17T09:55:00.588Z,1.30
2022-09-17T09:56:00.570Z,1.80
2022-09-17T09:57:00.605Z,1.50
2022-09-17T09:58:00.548Z,1.40
2022-09-17T09:59:00.739Z,1.50
2022-09-17T10:00:00.530Z,1.00
2022-09-17T10:01:00.512Z,1.30
2022-09-17T10:02:00.655Z,1.20
2022-09-17T10:03:00.588Z,1.50
2022-09-17T10:04:00.495Z,1.30
2022-09-17T10:05:00.484Z,1.40
2022-09-17T10:06:00.475Z,1.10
2022-09-17T10:07:00.451Z,1.00
2022-09-17T10:08:00.453Z,1.00
2022-09-17T10:09:00.483Z,1.50
2022-09-17T10:10:00.420Z,1.30
2022-09-17T10:11:00.407Z,1.50
2022-09-17T10:12:00.405Z,0.90
2022-09-17T10:13:00.399Z,1.20
2022-09-17T10:14:00.393Z,1.20
2022-09-17T10:15:00.383Z,1.50
2022-09-17T10:16:00.378Z,0.80
2022-09-17T10:17:00.343Z,1.00
2022-09-17T10:18:00.334Z,1.20
2022-09-17T10:19:00.313Z,1.30
2022-09-17T10:20:00.315Z,1.00
2022-09-17T10:21:00.320Z,1.50
2022-09-17T10:22:00.286Z,1.30
2022-09-17T10:23:00.324Z,1.00
2022-09-17T10:24:00.266Z,1.10
2022-09-17T10:25:00.270Z,1.40
2022-09-17T10:26:00.257Z,1.30
2022-09-17T10:27:00.227Z,1.40
2022-09-17T10:28:00.237Z,1.30
2022-09-17T10:29:00.282Z,0.90
2022-09-17T10:30:00.201Z,1.10
2022-09-17T10:31:00.627Z,1.20
2022-09-17T10:32:00.310Z,1.00
2022-09-17T10:33:00.157Z,1.10
2022-09-17T10:34:00.151Z,1.00
2022-09-17T10:35:00.163Z,1.20
2022-09-17T10:36:00.131Z,0.90
2022-09-17T10:37:00.118Z,1.10
2022-09-17T10:38:00.133Z,1.40
2022-09-17T10:39:00.092Z,1.10
2022-09-17T10:40:00.200Z,1.10
2022-09-17T10:41:00.091Z,0.90
2022-09-17T10:42:00.061Z,1.20
2022-09-17T10:43:00.072Z,1.20
2022-09-17T10:44:00.167Z,1.10
2022-09-17T10:45:00.034Z,0.80
2022-09-17T10:46:00.019Z,1.50
2022-09-17T10:47:00.085Z,0.90
2022-09-17T10:47:59.999Z,0.90
2022-09-17T10:48:59.990Z,0.90
2022-09-17T10:49:59.964Z,1.00
2022-09-17T10:50:59.950Z,1.10
2022-09-17T10:51:59.950Z,1.10
2022-09-17T10:53:00.014Z,0.80
2022-09-17T10:53:59.934Z,0.90
2022-09-17T10:54:59.902Z,0.90
2022-09-17T10:55:59.891Z,1.10
2022-09-17T10:56:59.883Z,1.10
2022-09-17T10:57:59.864Z,0.90
2022-09-17T10:58:59.922Z,1.20
2022-09-17T10:59:59.892Z,1.00
2022-09-17T11:00:59.832Z,0.90
2022-09-17T11:01:59.917Z,0.90
2022-09-17T11:02:59.889Z,1.00
2022-09-17T11:03:59.817Z,1.20
2022-09-17T11:04:59.792Z,1.40
2022-09-17T11:05:59.792Z,1.00
2022-09-17T11:06:59.847Z,0.90
2022-09-17T11:07:59.781Z,1.20
2022-09-17T11:08:59.764Z,1.00
2022-09-17T11:09:59.734Z,1.10
2022-09-17T11:10:59.745Z,1.30
2022-09-17T11:11:59.715Z,0.90
2022-09-17T11:12:59.715Z,1.00
2022-09-17T11:13:59.760Z,0.80
2022-09-17T11:14:59.686Z,0.80
2022-09-17T11:15:59.699Z,0.90
2022-09-17T11:16:59.674Z,0.60
2022-09-17T11:17:59.640Z,1.20
2022-09-17T11:18:59.634Z,1.30
2022-09-17T11:19:59.628Z,1.10
2022-09-17T11:20:59.637Z,0.90
2022-09-17T11:21:59.617Z,0.90
2022-09-17T11:22:59.576Z,0.70
2022-09-17T11:23:59.629Z,0.90
2022-09-17T11:24:59.557Z,0.90
2022-09-17T11:26:00.957Z,0.90
2022-09-17T11:26:59.542Z,0.90
2022-09-17T11:27:59.551Z,0.70
2022-09-17T11:28:59.574Z,0.70
2022-09-17T11:29:59.539Z,0.80
2022-09-17T11:30:59.530Z,0.80
2022-09-17T11:31:59.558Z,0.80
2022-09-17T11:32:59.501Z,0.60
2022-09-17T11:33:59.529Z,0.80
2022-09-17T11:34:59.443Z,0.50
2022-09-17T11:35:59.427Z,0.60
2022-09-17T11:36:59.431Z,1.00
2022-09-17T11:38:00.189Z,0.50
2022-09-17T11:38:59.410Z,0.60
2022-09-17T11:39:59.419Z,0.60
2022-09-17T11:40:59.375Z,0.60
2022-09-17T11:41:59.367Z,0.70
2022-09-17T11:42:59.351Z,0.70
2022-09-17T11:43:59.371Z,0.80
2022-09-17T11:44:59.352Z,0.60
2022-09-17T11:45:59.332Z,0.70
2022-09-17T11:46:59.401Z,0.60
2022-09-17T11:47:59.299Z,0.50
2022-09-17T11:48:59.274Z,0.70
2022-09-17T11:49:59.275Z,0.50
2022-09-17T11:50:59.295Z,0.60
2022-09-17T11:51:59.263Z,0.70
2022-09-17T11:52:59.244Z,0.70
2022-09-17T11:53:59.223Z,0.60
2022-09-17T11:54:59.240Z,0.80
2022-09-17T11:55:59.194Z,0.60
2022-09-17T11:56:59.405Z,0.50
2022-09-17T11:57:59.182Z,0.60
2022-09-17T11:58:59.372Z,0.50
2022-09-17T11:59:59.171Z,1.00
2022-09-17T12:00:59.148Z,0.80
2022-09-17T12:01:59.208Z,0.70
2022-09-17T12:02:59.228Z,0.70
2022-09-17T12:03:59.107Z,0.50
2022-09-17T12:04:59.097Z,0.70
2022-09-17T12:05:59.085Z,0.70
2022-09-17T12:06:59.096Z,0.60
2022-09-17T12:07:59.067Z,0.70
2022-09-17T12:08:59.108Z,0.80
2022-09-17T12:09:59.055Z,0.50
2022-09-17T12:10:59.030Z,0.60
2022-09-17T12:11:59.018Z,0.90
2022-09-17T12:12:59.010Z,1.00
2022-09-17T12:13:59.130Z,0.70
2022-09-17T12:14:59.015Z,0.60
2022-09-17T12:15:59.021Z,0.90
2022-09-17T12:16:58.958Z,0.80
2022-09-17T12:18:20.577Z,1.00
2022-09-17T12:18:59.996Z,0.70
2022-09-17T12:19:58.930Z,0.60
2022-09-17T12:20:58.909Z,0.60
2022-09-17T12:21:58.912Z,0.60
2022-09-17T12:22:58.890Z,0.60
2022-09-17T12:23:58.882Z,0.60
2022-09-17T12:24:58.902Z,0.50
2022-09-17T12:25:58.850Z,0.50
2022-09-17T12:26:58.842Z,0.40
2022-09-17T12:27:58.831Z,0.40
2022-09-17T12:28:58.926Z,0.60
2022-09-17T12:30:00.653Z,0.60
2022-09-17T12:30:58.893Z,0.70
2022-09-17T12:31:58.783Z,0.40
2022-09-17T12:32:58.771Z,0.40
2022-09-17T12:33:58.774Z,0.60
2022-09-17T12:34:58.753Z,0.50
2022-09-17T12:36:05.168Z,0.50
2022-09-17T12:36:59.775Z,0.80
2022-09-17T12:37:58.792Z,0.50
2022-09-17T12:39:02.812Z,0.60
2022-09-17T12:39:58.786Z,0.80
2022-09-17T12:40:58.690Z,0.70
2022-09-17T12:41:58.903Z,0.60
2022-09-17T12:42:58.653Z,0.60
2022-09-17T12:43:58.659Z,0.60
2022-09-17T12:44:58.648Z,0.70
2022-09-17T12:45:58.624Z,0.60
2022-09-17T12:46:58.752Z,0.70
2022-09-17T12:47:58.621Z,0.70
2022-09-17T12:48:58.604Z,0.70
2022-09-17T12:49:58.567Z,0.90
2022-09-17T12:50:58.555Z,0.80
2022-09-17T12:51:58.556Z,0.70
2022-09-17T12:52:58.545Z,0.70
2022-09-17T12:53:58.557Z,0.90
2022-09-17T12:54:58.515Z,0.80
2022-09-17T12:55:58.507Z,0.70
2022-09-17T12:56:58.500Z,0.80
2022-09-17T12:57:58.479Z,0.80
2022-09-17T12:58:58.517Z,0.60
2022-09-17T12:59:58.488Z,0.80
2022-09-17T13:00:58.486Z,0.80
2022-09-17T13:01:58.458Z,0.60
2022-09-17T13:02:58.425Z,0.60
2022-09-17T13:03:58.495Z,1.00
2022-09-17T13:05:01.250Z,0.70
2022-09-17T13:05:58.579Z,0.60
2022-09-17T13:06:58.368Z,0.70
2022-09-17T13:07:58.363Z,0.70
2022-09-17T13:08:58.346Z,1.00
2022-09-17T13:09:58.343Z,0.50
2022-09-17T13:10:58.370Z,1.00
2022-09-17T13:11:58.313Z,0.90
2022-09-17T13:12:58.341Z,0.80
2022-09-17T13:13:58.296Z,0.80
2022-09-17T13:14:58.281Z,0.70
2022-09-17T13:15:58.321Z,0.90
2022-09-17T13:16:58.312Z,0.80
2022-09-17T13:18:20.359Z,0.80